Time;durP1;ratioP1;P1;durP2;ratioP2;P2;SDS_P1;SDS_P2;PMS_P1;PMS_P2;Temp;Humidity;BMP_temperature;BMP_pressure;BME280_temperature;BME280_humidity;BME280_pressure;Samples;Min_cycle;Max_cycle;Signal;HPM_P1;HPM_P2
2022/10/07 00:01:00;;;;;;;11.15;3.35;;;;;;;8.88;89.95;102766.22;5059226;28;20048;-33
2022/10/07 00:03:27;;;;;;;12.30;2.90;;;;;;;8.80;90.09;102766.22;5060275;28;20032;-33
2022/10/07 00:06:06;;;;;;;12.40;3.50;;;;;;;8.82;90.28;102774.16;5059190;28;20520;-34
2022/10/07 00:08:34;;;;;;;9.93;3.53;;;;;;;8.80;91.51;102776.19;5059508;28;20134;-34
2022/10/07 00:11:08;;;;;;;12.07;3.20;;;;;;;8.85;91.01;102771.13;5059320;28;20029;-34
2022/10/07 00:13:35;;;;;;;10.02;3.35;;;;;;;8.84;91.17;102770.28;5059225;28;20112;-34
2022/10/07 00:16:05;;;;;;;9.02;3.00;;;;;;;8.72;89.72;102760.84;5059009;28;20038;-34
2022/10/07 00:18:31;;;;;;;10.05;3.00;;;;;;;8.76;91.65;102762.19;5059054;28;20107;-34
2022/10/07 00:21:01;;;;;;;8.55;2.95;;;;;;;8.72;91.40;102766.25;5059103;28;20473;-34
2022/10/07 00:23:26;;;;;;;9.38;3.50;;;;;;;8.66;91.50;102753.44;5059367;28;20131;-34
2022/10/07 00:25:52;;;;;;;13.50;3.60;;;;;;;8.73;92.24;102757.13;5059108;28;20501;-34
2022/10/07 00:28:17;;;;;;;10.73;3.50;;;;;;;8.71;92.30;102742.97;5059273;28;20082;-34
2022/10/07 00:30:42;;;;;;;8.50;2.63;;;;;;;8.69;91.59;102745.03;5059040;28;20029;-34
2022/10/07 00:33:08;;;;;;;10.07;2.80;;;;;;;8.78;91.70;102746.66;5059483;28;20469;-34
2022/10/07 00:35:34;;;;;;;10.60;3.42;;;;;;;8.57;88.91;102733.75;5058915;28;20032;-34
2022/10/07 00:38:00;;;;;;;;;;;;;;;8.77;89.62;102748.53;5059429;28;20086;-34
2022/10/07 00:40:25;;;;;;;9.40;3.28;;;;;;;8.74;92.21;102746.19;5058858;28;19909;-34
2022/10/07 00:42:50;;;;;;;10.00;3.23;;;;;;;8.74;93.47;102739.97;5059427;28;20025;-34
2022/10/07 00:45:18;;;;;;;8.93;2.93;;;;;;;8.66;91.82;102732.72;5058884;28;20071;-34
2022/10/07 00:47:45;;;;;;;9.50;3.28;;;;;;;8.63;90.68;102734.91;5041590;28;20025;-35
2022/10/07 00:50:18;;;;;;;8.63;2.95;;;;;;;8.70;91.57;102735.91;5058595;28;20078;-34
2022/10/07 00:53:01;;;;;;;9.30;3.50;;;;;;;8.72;92.61;102733.88;5059044;28;20183;-34
2022/10/07 00:55:29;;;;;;;9.20;2.60;;;;;;;8.65;93.16;102739.13;5059259;28;20119;-35
2022/10/07 00:57:59;;;;;;;11.52;3.55;;;;;;;8.62;91.78;102733.22;5059405;28;20063;-35
2022/10/07 01:00:25;;;;;;;9.57;2.90;;;;;;;8.69;93.48;102728.84;5058776;28;20029;-35
2022/10/07 01:02:50;;;;;;;6.97;2.65;;;;;;;8.60;92.71;102713.69;5059267;28;20032;-34
2022/10/07 01:05:16;;;;;;;10.70;3.47;;;;;;;8.68;92.52;102721.75;5058880;28;20029;-34
2022/10/07 01:07:44;;;;;;;13.57;3.00;;;;;;;8.51;93.44;102711.00;5057513;28;20060;-34
2022/10/07 01:10:10;;;;;;;9.85;3.03;;;;;;;8.51;92.34;102715.56;5055491;28;20112;-35
2022/10/07 01:13:13;;;;;;;7.35;2.92;;;;;;;8.57;92.80;102717.56;5055730;28;20025;-34
2022/10/07 01:15:46;;;;;;;13.20;3.78;;;;;;;8.57;93.71;102716.72;5055419;28;20469;-35
2022/10/07 01:18:30;;;;;;;8.90;2.67;;;;;;;8.50;94.05;102712.03;5055427;28;20139;-34
2022/10/07 01:21:13;;;;;;;10.43;3.03;;;;;;;8.63;94.10;102708.78;5055142;28;20108;-34
2022/10/07 01:23:47;;;;;;;11.40;3.15;;;;;;;8.61;94.84;102700.03;5054866;28;20035;-35
2022/10/07 01:26:35;;;;;;;11.82;3.15;;;;;;;8.63;94.74;102702.53;5054980;28;20381;-35
2022/10/07 01:29:25;;;;;;;12.32;3.28;;;;;;;8.63;94.89;102691.75;5055014;28;20481;-34
2022/10/07 01:32:03;;;;;;;13.18;3.30;;;;;;;8.58;95.08;102683.34;5044388;28;20033;-35
2022/10/07 01:34:31;;;;;;;12.75;3.60;;;;;;;8.64;95.62;102688.06;5055061;28;20100;-35
2022/10/07 01:36:59;;;;;;;12.20;2.90;;;;;;;8.66;95.65;102675.25;5054929;28;20028;-34
2022/10/07 01:39:31;;;;;;;10.23;3.13;;;;;;;8.68;95.14;102668.63;5054814;28;20112;-34
2022/10/07 01:41:57;;;;;;;12.45;3.35;;;;;;;8.67;95.14;102661.56;5054472;28;20040;-34
2022/10/07 01:44:25;;;;;;;11.38;3.17;;;;;;;8.62;96.39;102647.75;5055770;28;20104;-34
2022/10/07 01:46:50;;;;;;;14.60;3.72;;;;;;;8.74;96.86;102654.47;5054583;28;20021;-35
2022/10/07 01:49:16;;;;;;;12.10;3.60;;;;;;;8.74;96.59;102653.63;5054595;28;20029;-34
2022/10/07 01:51:41;;;;;;;11.43;3.13;;;;;;;8.68;96.33;102636.28;5055272;28;20036;-34
2022/10/07 01:54:40;;;;;;;13.60;3.53;;;;;;;8.74;96.17;102649.09;5054627;28;20029;-35
2022/10/07 01:57:28;;;;;;;10.25;3.30;;;;;;;8.66;95.68;102632.09;5049159;28;20033;-35
2022/10/07 02:00:08;;;;;;;9.10;2.80;;;;;;;8.75;96.02;102636.44;5055070;28;20032;-34
2022/10/07 02:02:52;;;;;;;9.48;3.10;;;;;;;8.73;96.75;102638.44;5054545;28;20021;-34
2022/10/07 02:05:35;;;;;;;13.57;3.25;;;;;;;8.72;96.10;102636.78;5054952;28;20156;-35
2022/10/07 02:08:15;;;;;;;14.15;3.17;;;;;;;8.71;96.35;102640.50;5054836;28;20143;-35
2022/10/07 02:11:17;;;;;;;8.88;2.97;;;;;;;8.66;96.21;102629.38;5054068;28;20017;-35
2022/10/07 02:13:43;;;;;;;10.13;2.75;;;;;;;8.57;96.00;102630.44;5054749;28;20507;-34
2022/10/07 02:16:22;;;;;;;12.75;3.72;;;;;;;8.64;97.26;102634.13;5054627;28;20040;-34
2022/10/07 02:18:50;;;;;;;11.07;2.97;;;;;;;8.56;97.05;102626.06;5053915;28;20064;-34
2022/10/07 02:21:21;;;;;;;10.20;3.08;;;;;;;8.58;96.81;102619.47;5053415;28;20033;-35
2022/10/07 02:23:48;;;;;;;10.20;3.13;;;;;;;8.55;95.93;102619.00;5053985;28;20035;-34
2022/10/07 02:26:18;;;;;;;9.00;2.85;;;;;;;8.51;95.89;102621.19;5053926;28;20029;-35
2022/10/07 02:28:45;;;;;;;11.00;3.30;;;;;;;8.46;95.96;102610.91;5054434;28;20056;-34
2022/10/07 02:31:14;;;;;;;15.07;3.45;;;;;;;8.48;97.20;102603.50;5053853;28;20076;-34
2022/10/07 02:33:41;;;;;;;9.70;3.10;;;;;;;8.40;97.67;102605.41;5053455;28;20025;-34
2022/10/07 02:36:12;;;;;;;12.70;3.63;;;;;;;8.36;97.58;102598.63;5053286;28;20071;-34
2022/10/07 02:38:38;;;;;;;12.85;3.35;;;;;;;8.44;98.05;102596.78;5054368;28;20182;-34
2022/10/07 02:41:12;;;;;;;;;;;;;;;8.52;96.36;102601.28;5054130;28;20412;-34
2022/10/07 02:43:47;;;;;;;15.50;3.67;;;;;;;8.42;96.98;102597.97;5053320;28;20403;-34
2022/10/07 02:46:21;;;;;;;10.93;3.22;;;;;;;8.45;97.81;102593.06;5053661;28;20064;-34
2022/10/07 02:48:56;;;;;;;10.52;3.20;;;;;;;8.47;97.88;102591.03;5054171;28;20107;-34
2022/10/07 02:51:45;;;;;;;10.55;3.35;;;;;;;8.38;97.75;102581.28;5053148;28;20496;-34
2022/10/07 02:54:14;;;;;;;10.25;3.35;;;;;;;8.46;98.30;102586.66;5045484;28;20083;-35
2022/10/07 02:56:40;;;;;;;13.05;3.80;;;;;;;8.49;98.94;102575.53;5053363;28;20025;-34
2022/10/07 02:59:08;;;;;;;11.88;3.65;;;;;;;8.51;99.01;102570.78;5054045;28;20116;-34
2022/10/07 03:01:40;;;;;;;11.10;3.65;;;;;;;8.45;99.15;102579.59;5053217;28;20116;-34
2022/10/07 03:04:06;;;;;;;14.93;3.30;;;;;;;8.41;99.63;102567.47;5053491;28;20028;-34
2022/10/07 03:06:34;;;;;;;12.73;4.03;;;;;;;8.47;99.42;102574.84;5053616;28;20070;-34
2022/10/07 03:09:00;;;;;;;13.43;3.88;;;;;;;8.36;99.08;102566.28;5053658;28;20082;-34
2022/10/07 03:11:25;;;;;;;13.25;3.70;;;;;;;8.40;97.49;102567.66;5052849;28;20502;-34
2022/10/07 03:13:50;;;;;;;14.50;3.53;;;;;;;8.43;97.96;102567.28;5052771;28;20389;-34
2022/10/07 03:16:16;;;;;;;15.57;3.83;;;;;;;8.43;98.79;102568.13;5051803;28;20480;-35
2022/10/07 03:18:41;;;;;;;12.83;3.77;;;;;;;8.40;98.85;102563.09;5053251;28;20103;-34
2022/10/07 03:21:07;;;;;;;10.07;3.33;;;;;;;8.36;98.16;102566.28;5052982;28;20120;-34
2022/10/07 03:23:33;;;;;;;15.95;3.65;;;;;;;8.33;98.46;102559.38;5053339;28;20033;-34
2022/10/07 03:25:59;;;;;;;11.65;3.60;;;;;;;8.33;98.59;102556.69;5052864;28;20036;-34
2022/10/07 03:28:25;;;;;;;;;;;;;;;8.39;97.26;102553.31;5053540;28;20112;-34
2022/10/07 03:30:51;;;;;;;10.13;3.28;;;;;;;8.31;98.29;102553.31;5052189;28;19908;-35
2022/10/07 03:33:18;;;;;;;14.00;3.70;;;;;;;8.30;98.67;102557.03;5052772;28;20029;-35
2022/10/07 03:35:44;;;;;;;12.13;3.42;;;;;;;8.28;99.11;102553.66;5052759;28;20104;-34
2022/10/07 03:38:10;;;;;;;9.30;3.25;;;;;;;8.29;99.75;102549.13;5052784;28;20456;-34
2022/10/07 03:40:36;;;;;;;14.90;3.50;;;;;;;8.29;98.72;102547.25;5053075;28;20041;-34
2022/10/07 03:43:03;;;;;;;14.15;3.65;;;;;;;8.12;98.64;102526.78;5052885;28;20350;-35
2022/10/07 03:45:29;;;;;;;13.52;3.97;;;;;;;8.20;98.65;102534.84;5052857;28;20036;-34
2022/10/07 03:47:55;;;;;;;11.93;3.83;;;;;;;8.15;99.18;102531.81;5053000;28;20032;-34
2022/10/07 03:50:20;;;;;;;13.23;3.78;;;;;;;8.17;100.00;102535.19;5052241;28;20044;-34
2022/10/07 03:52:46;;;;;;;13.77;3.67;;;;;;;8.09;99.25;102527.13;5052426;28;20092;-34
2022/10/07 03:55:11;;;;;;;14.40;3.63;;;;;;;8.11;99.45;102539.41;5052266;28;20453;-34
2022/10/07 03:57:56;;;;;;;12.77;4.63;;;;;;;8.14;99.03;102538.22;5053148;28;20068;-34
2022/10/07 04:00:24;;;;;;;11.50;3.30;;;;;;;8.05;99.55;102505.06;5053049;28;20060;-34
2022/10/07 04:02:50;;;;;;;11.40;3.40;;;;;;;8.14;99.97;102524.75;5052565;28;20075;-34
2022/10/07 04:05:17;;;;;;;15.50;4.47;;;;;;;8.09;99.29;102529.81;5052592;28;20044;-34
2022/10/07 04:07:43;;;;;;;10.43;3.80;;;;;;;8.03;98.95;102530.50;5052837;28;20097;-34
2022/10/07 04:10:10;;;;;;;12.65;4.13;;;;;;;7.98;99.63;102510.31;5052256;28;20033;-34
2022/10/07 04:12:36;;;;;;;12.80;3.40;;;;;;;8.02;99.18;102526.97;5052371;28;20113;-34
2022/10/07 04:15:01;;;;;;;12.50;3.28;;;;;;;8.03;100.00;102508.97;5051864;28;20103;-34
2022/10/07 04:17:27;;;;;;;13.18;4.22;;;;;;;8.09;99.87;102527.13;5052621;28;20029;-34
2022/10/07 04:19:53;;;;;;;14.38;3.63;;;;;;;8.11;99.70;102517.88;5052228;28;20037;-34
2022/10/07 04:22:18;;;;;;;9.97;3.47;;;;;;;8.12;100.00;102518.69;5052239;28;20044;-34
2022/10/07 04:25:32;;;;;;;14.70;3.60;;;;;;;8.09;100.00;102513.66;5052115;28;20385;-34
2022/10/07 04:27:28;;;;;;;13.15;3.00;;;;;;;8.13;100.00;102512.28;5051968;28;20478;-34
2022/10/07 04:29:54;;;;;;;11.40;3.70;;;;;;;8.13;100.00;102514.97;5051795;28;20064;-34
2022/10/07 04:32:20;;;;;;;10.93;3.90;;;;;;;8.18;100.00;102518.84;5051992;28;20133;-34
2022/10/07 04:34:45;;;;;;;;;;;;;;;8.21;99.45;102513.09;5052542;28;20366;-34
2022/10/07 04:37:10;;;;;;;9.83;3.43;;;;;;;8.13;99.44;102514.97;5051964;28;19927;-34
2022/10/07 04:39:36;;;;;;;12.00;3.53;;;;;;;8.03;99.60;102498.19;5052059;28;20033;-34
2022/10/07 04:42:01;;;;;;;13.90;4.07;;;;;;;8.14;100.00;102522.88;5052800;28;20028;-34
2022/10/07 04:44:26;;;;;;;13.47;3.60;;;;;;;8.16;99.54;102515.50;5055196;28;20419;-35
2022/10/07 04:46:55;;;;;;;14.87;3.90;;;;;;;8.16;100.00;102520.03;5055884;28;20020;-34
2022/10/07 04:49:20;;;;;;;15.57;4.18;;;;;;;8.12;99.63;102516.84;5055355;28;20025;-34
2022/10/07 04:51:46;;;;;;;11.40;3.80;;;;;;;8.06;99.86;102503.25;5055295;28;20068;-34
2022/10/07 04:54:12;;;;;;;13.63;4.10;;;;;;;8.10;100.00;102507.25;5055394;28;20061;-34
2022/10/07 04:56:37;;;;;;;12.93;3.97;;;;;;;8.10;100.00;102515.31;5055208;28;20037;-34
2022/10/07 04:59:03;;;;;;;12.87;3.70;;;;;;;8.12;100.00;102516.00;5055622;28;20031;-34
2022/10/07 05:01:28;;;;;;;15.23;4.23;;;;;;;8.11;100.00;102511.63;5055758;28;20279;-35
2022/10/07 05:03:53;;;;;;;12.13;4.40;;;;;;;8.06;100.00;102509.47;5055413;28;20025;-34
2022/10/07 05:06:19;;;;;;;10.63;3.67;;;;;;;8.08;100.00;102509.28;5055157;28;20025;-34
2022/10/07 05:08:44;;;;;;;13.87;3.87;;;;;;;8.08;100.00;102502.03;5055339;28;20029;-34
2022/10/07 05:11:09;;;;;;;18.67;3.57;;;;;;;8.10;100.00;102499.16;5037002;28;20041;-34
2022/10/07 05:13:37;;;;;;;11.60;3.87;;;;;;;8.06;100.00;102500.53;5055627;28;20484;-34
2022/10/07 05:16:02;;;;;;;11.63;3.85;;;;;;;8.06;100.00;102495.16;5055201;28;20286;-34
2022/10/07 05:18:29;;;;;;;13.30;4.10;;;;;;;8.01;100.00;102492.97;5055475;28;20037;-34
2022/10/07 05:20:55;;;;;;;15.40;4.32;;;;;;;8.02;100.00;102496.50;5054857;28;20044;-34
2022/10/07 05:23:23;;;;;;;17.40;5.20;;;;;;;7.96;100.00;102474.66;5055112;28;20033;-34
2022/10/07 05:26:00;;;;;;;17.83;4.55;;;;;;;8.03;100.00;102504.41;5054760;28;20366;-34
2022/10/07 05:28:26;;;;;;;14.93;3.95;;;;;;;8.04;100.00;102497.16;5055198;28;20032;-34
2022/10/07 05:31:12;;;;;;;16.95;4.53;;;;;;;7.93;100.00;102482.22;5055240;28;20461;-34
2022/10/07 05:33:38;;;;;;;15.98;4.97;;;;;;;7.96;100.00;102484.59;5055239;28;20029;-34
2022/10/07 05:36:05;;;;;;;10.05;3.88;;;;;;;7.96;100.00;102482.72;5054948;28;20552;-34
2022/10/07 05:38:32;;;;;;;12.80;4.10;;;;;;;7.92;100.00;102484.09;5055144;28;20111;-34
2022/10/07 05:41:00;;;;;;;16.20;4.20;;;;;;;8.02;100.00;102480.34;5054632;28;20591;-34
2022/10/07 05:43:27;;;;;;;13.88;4.35;;;;;;;7.99;100.00;102484.22;5054954;28;20021;-34
2022/10/07 05:46:04;;;;;;;15.20;4.15;;;;;;;7.94;100.00;102482.03;5054524;28;20481;-34
2022/10/07 05:48:31;;;;;;;11.93;3.95;;;;;;;7.82;100.00;102469.97;5055509;28;20078;-34
2022/10/07 05:50:57;;;;;;;10.48;4.13;;;;;;;7.84;100.00;102472.50;5055258;28;20090;-34
2022/10/07 05:53:24;;;;;;;11.57;4.28;;;;;;;7.92;100.00;102476.00;5055231;28;20053;-34
2022/10/07 05:55:50;;;;;;;10.40;3.80;;;;;;;7.81;100.00;102471.00;5054326;28;20049;-34
2022/10/07 05:58:16;;;;;;;;;;;;;;;7.96;99.79;102477.34;5055666;28;20108;-34
2022/10/07 06:00:49;;;;;;;16.30;4.35;;;;;;;7.84;100.00;102473.31;5054588;28;20390;-34
2022/10/07 06:03:14;;;;;;;15.25;3.83;;;;;;;7.85;100.00;102469.59;5055287;28;20128;-34
2022/10/07 06:05:39;;;;;;;13.20;4.37;;;;;;;7.79;100.00;102456.00;5054573;28;20060;-34
2022/10/07 06:08:04;;;;;;;18.17;4.57;;;;;;;7.85;100.00;102472.31;5054858;28;20024;-34
2022/10/07 06:13:18;;;;;;;14.00;4.20;;;;;;;7.88;100.00;102460.34;5012719;28;20046;-34
2022/10/07 06:15:43;;;;;;;14.30;4.60;;;;;;;7.90;100.00;102461.84;5012373;28;20092;-34
2022/10/07 06:18:09;;;;;;;14.83;4.33;;;;;;;7.91;100.00;102460.84;5012856;28;20042;-34
2022/10/07 06:20:34;;;;;;;11.57;3.93;;;;;;;7.90;100.00;102458.31;5012294;28;20026;-34
2022/10/07 06:22:59;;;;;;;13.33;4.00;;;;;;;7.96;100.00;102465.72;5012118;28;20038;-34
2022/10/07 06:25:25;;;;;;;13.57;4.43;;;;;;;7.96;100.00;102463.88;5012201;28;20129;-34
2022/10/07 06:27:50;;;;;;;12.33;4.53;;;;;;;7.94;100.00;102460.50;5012632;28;20057;-34
2022/10/07 06:30:15;;;;;;;19.50;4.20;;;;;;;7.95;100.00;102451.41;5012168;28;20153;-34
2022/10/07 06:32:41;;;;;;;11.73;4.47;;;;;;;8.00;100.00;102454.44;5012160;28;20452;-34
2022/10/07 06:35:06;;;;;;;16.13;5.03;;;;;;;8.04;100.00;102454.06;5012058;28;20030;-34
2022/10/07 06:37:32;;;;;;;14.02;4.85;;;;;;;8.07;100.00;102451.03;5012433;28;20350;-34
2022/10/07 06:39:57;;;;;;;14.37;3.80;;;;;;;8.08;100.00;102460.78;5012136;28;20068;-34
2022/10/07 06:42:22;;;;;;;12.60;4.37;;;;;;;8.10;100.00;102461.44;5012028;28;20126;-34
2022/10/07 06:44:47;;;;;;;13.50;4.03;;;;;;;8.10;100.00;102456.03;5012264;28;20050;-34
2022/10/07 06:47:13;;;;;;;9.93;3.50;;;;;;;8.15;100.00;102464.44;5012286;28;20030;-34
2022/10/07 06:49:38;;;;;;;11.23;4.40;;;;;;;8.19;100.00;102455.84;5020140;28;20072;-34
2022/10/07 06:52:04;;;;;;;14.63;3.80;;;;;;;8.27;100.00;102460.34;5053484;28;20067;-34
2022/10/07 06:54:29;;;;;;;15.95;4.18;;;;;;;8.23;100.00;102453.63;5054287;28;20025;-34
2022/10/07 06:56:55;;;;;;;12.63;4.50;;;;;;;8.26;100.00;102447.91;5053847;28;20056;-34
2022/10/07 06:59:20;;;;;;;18.50;3.97;;;;;;;8.38;100.00;102459.16;5053499;28;20021;-34
2022/10/07 07:01:45;;;;;;;13.87;4.53;;;;;;;8.48;100.00;102460.59;5053865;28;20025;-34
2022/10/07 07:04:11;;;;;;;14.07;3.73;;;;;;;8.45;100.00;102452.03;5052853;28;20087;-34
2022/10/07 07:06:36;;;;;;;11.33;3.17;;;;;;;8.52;100.00;102455.69;5053208;28;20020;-34
2022/10/07 07:09:04;;;;;;;14.32;4.22;;;;;;;8.63;100.00;102462.53;5053538;28;20029;-34
2022/10/07 07:11:36;;;;;;;14.57;3.83;;;;;;;8.67;100.00;102466.56;5053035;28;20172;-34
2022/10/07 07:14:10;;;;;;;11.32;3.67;;;;;;;8.68;100.00;102452.03;5053062;28;20115;-34
2022/10/07 07:16:35;;;;;;;15.05;4.45;;;;;;;8.84;100.00;102464.59;5053322;28;20079;-34
2022/10/07 07:19:07;;;;;;;13.45;4.13;;;;;;;8.93;99.99;102461.66;5053363;28;20466;-34
2022/10/07 07:21:34;;;;;;;14.25;3.92;;;;;;;8.92;100.00;102448.31;5052761;28;20090;-34
2022/10/07 07:24:00;;;;;;;15.48;4.28;;;;;;;9.06;99.36;102452.94;5052999;28;20172;-34
2022/10/07 07:26:27;;;;;;;12.35;3.40;;;;;;;9.12;99.17;102448.66;5052993;28;20037;-34
2022/10/07 07:28:53;;;;;;;13.18;3.95;;;;;;;9.14;98.93;102452.88;5052839;28;20074;-34
2022/10/07 07:31:19;;;;;;;15.55;3.55;;;;;;;9.31;99.64;102458.94;5052969;28;20033;-34
2022/10/07 07:33:51;;;;;;;13.77;3.45;;;;;;;9.34;98.54;102458.59;5053033;28;20112;-35
2022/10/07 07:36:17;;;;;;;13.75;3.80;;;;;;;9.44;99.12;102452.94;5052776;28;20025;-34
2022/10/07 07:38:43;;;;;;;9.27;3.47;;;;;;;9.48;98.69;102438.88;5052953;28;20033;-35
2022/10/07 07:41:09;;;;;;;12.23;3.67;;;;;;;9.57;98.52;102439.63;5053020;28;20047;-34
2022/10/07 07:43:35;;;;;;;10.18;3.30;;;;;;;9.72;98.13;102448.56;5052711;28;20029;-34
2022/10/07 07:46:01;;;;;;;12.35;3.03;;;;;;;9.76;96.95;102433.69;5052728;28;20032;-34
2022/10/07 07:48:26;;;;;;;12.38;3.75;;;;;;;9.90;96.79;102445.47;5052642;28;20044;-34
2022/10/07 07:50:52;;;;;;;9.60;3.57;;;;;;;9.97;96.35;102440.19;5052445;28;20086;-34
2022/10/07 07:53:17;;;;;;;12.83;3.37;;;;;;;10.05;95.58;102440.91;5052865;28;20053;-34
2022/10/07 07:55:55;;;;;;;11.90;3.13;;;;;;;10.16;95.39;102438.75;5052560;28;20561;-34
2022/10/07 07:58:23;;;;;;;10.57;3.25;;;;;;;10.21;95.15;102428.22;5052711;28;20465;-35
2022/10/07 08:01:02;;;;;;;9.48;3.25;;;;;;;10.35;94.65;102440.88;5052569;28;20040;-34
2022/10/07 08:03:28;;;;;;;10.38;3.15;;;;;;;10.41;94.73;102437.41;5052811;28;20140;-35
2022/10/07 08:05:53;;;;;;;9.73;3.28;;;;;;;10.52;94.62;102441.47;5052570;28;20495;-35
2022/10/07 08:08:19;;;;;;;10.13;3.03;;;;;;;10.55;93.91;102431.13;5053322;28;20036;-35
2022/10/07 08:10:44;;;;;;;15.77;3.30;;;;;;;10.70;94.00;102433.78;5052633;28;20025;-34
2022/10/07 08:13:09;;;;;;;9.50;2.77;;;;;;;10.78;93.23;102424.66;5052424;28;20021;-35
2022/10/07 08:15:35;;;;;;;10.17;3.10;;;;;;;10.88;93.29;102422.47;5052370;28;20132;-34
2022/10/07 08:18:02;;;;;;;11.65;3.20;;;;;;;11.01;92.80;102429.88;5054837;28;20287;-34
2022/10/07 08:20:27;;;;;;;13.43;3.42;;;;;;;11.13;92.22;102428.31;5056487;28;20388;-35
2022/10/07 08:22:53;;;;;;;11.32;2.90;;;;;;;11.27;91.75;102419.28;5056556;28;20115;-34
2022/10/07 08:25:18;;;;;;;12.07;2.57;;;;;;;11.44;91.60;102433.34;5056618;28;20025;-34
2022/10/07 08:27:44;;;;;;;9.60;2.97;;;;;;;11.45;90.49;102429.59;5056051;28;20504;-35
2022/10/07 08:30:10;;;;;;;15.45;3.58;;;;;;;11.45;91.33;102426.03;5056315;28;20029;-35
2022/10/07 08:32:35;;;;;;;12.93;3.33;;;;;;;11.34;91.33;102400.34;5056626;28;20496;-35
2022/10/07 08:35:00;;;;;;;13.40;3.27;;;;;;;11.52;91.56;102427.78;5055636;28;20354;-34
2022/10/07 08:37:26;;;;;;;10.30;2.50;;;;;;;11.54;90.86;102425.69;5056244;28;20032;-35
2022/10/07 08:39:51;;;;;;;12.93;3.13;;;;;;;11.46;89.90;102398.75;5056614;28;20130;-34
2022/10/07 08:42:32;;;;;;;12.93;2.83;;;;;;;11.64;89.98;102408.25;5056348;28;20021;-34
2022/10/07 08:44:58;;;;;;;10.10;2.72;;;;;;;11.79;89.99;102414.38;5056367;28;20029;-34
2022/10/07 08:47:37;;;;;;;8.50;2.70;;;;;;;11.93;89.25;102407.16;5056507;28;20021;-34
2022/10/07 08:50:24;;;;;;;11.40;2.65;;;;;;;12.08;89.31;102395.13;5038841;28;20036;-34
2022/10/07 08:52:58;;;;;;;10.80;2.93;;;;;;;12.24;88.05;102393.91;5055608;28;20429;-35
2022/10/07 08:55:39;;;;;;;12.05;2.80;;;;;;;12.43;87.97;102394.19;5055767;28;20029;-35
2022/10/07 08:58:23;;;;;;;11.02;2.97;;;;;;;12.50;86.14;102390.44;5055812;28;20033;-35
2022/10/07 09:01:01;;;;;;;8.15;2.53;;;;;;;12.51;85.05;102392.13;5055791;28;20033;-35
2022/10/07 09:03:50;;;;;;;11.77;2.55;;;;;;;12.57;85.76;102396.72;5055874;28;20036;-34
2022/10/07 09:06:26;;;;;;;15.57;3.95;;;;;;;12.63;83.91;102387.72;5055922;28;20112;-35
2022/10/07 09:08:56;;;;;;;;;;;;;;;12.79;85.82;102385.69;5056826;28;20044;-35
2022/10/07 09:11:24;;;;;;;7.38;2.40;;;;;;;12.88;83.85;102381.69;5055521;28;19909;-35
2022/10/07 09:13:56;;;;;;;10.52;2.63;;;;;;;12.95;82.27;102384.44;5055498;28;20025;-35
2022/10/07 09:16:28;;;;;;;15.05;3.03;;;;;;;12.97;82.46;102383.16;5055481;28;20033;-35
2022/10/07 09:18:58;;;;;;;13.02;3.10;;;;;;;13.09;82.74;102383.38;5056048;28;20025;-35
2022/10/07 09:21:34;;;;;;;8.98;2.40;;;;;;;13.12;82.29;102370.19;5055324;28;20032;-35
2022/10/07 09:24:24;;;;;;;8.40;3.00;;;;;;;13.14;81.46;102376.25;5055499;28;20036;-35
2022/10/07 09:26:57;;;;;;;13.82;3.25;;;;;;;13.22;81.96;102372.50;5055516;28;20054;-35
2022/10/07 09:29:25;;;;;;;9.93;2.50;;;;;;;13.31;81.45;102364.97;5037248;28;20033;-35
2022/10/07 09:31:52;;;;;;;14.32;3.22;;;;;;;13.33;81.00;102358.28;5055291;28;20036;-35
2022/10/07 09:34:22;;;;;;;13.00;3.05;;;;;;;13.48;80.87;102360.75;5055357;28;20036;-35
2022/10/07 09:37:19;;;;;;;8.73;2.50;;;;;;;13.65;81.03;102369.28;5054970;28;20069;-35
2022/10/07 09:39:48;;;;;;;9.38;2.83;;;;;;;13.80;80.72;102363.56;5055491;28;20104;-35
2022/10/07 09:42:32;;;;;;;13.48;3.10;;;;;;;13.90;78.83;102353.88;5054952;28;20104;-35
2022/10/07 09:45:01;;;;;;;8.00;2.65;;;;;;;13.91;77.98;102346.59;5055001;28;20041;-35
2022/10/07 09:47:35;;;;;;;10.18;3.03;;;;;;;14.07;78.12;102351.53;5055285;28;20381;-35
2022/10/07 09:50:01;;;;;;;12.10;2.72;;;;;;;14.15;78.46;102354.00;5055256;28;20048;-35
2022/10/07 09:52:28;;;;;;;10.63;3.15;;;;;;;14.19;78.02;102348.94;5059782;28;20481;-35
2022/10/07 09:54:56;;;;;;;13.05;3.08;;;;;;;14.22;76.15;102347.69;5075059;28;20021;-35
2022/10/07 09:57:24;;;;;;;10.48;2.58;;;;;;;14.26;76.38;102330.69;5074881;28;20020;-35
2022/10/07 09:59:50;;;;;;;12.75;3.38;;;;;;;14.43;76.17;102339.97;5074927;28;20036;-35
2022/10/07 10:02:16;;;;;;;;;;;;;;;14.59;77.14;102332.34;5075455;28;20020;-35
2022/10/07 10:04:51;;;;;;;8.53;2.53;;;;;;;14.62;75.62;102331.94;5074277;28;19908;-35
2022/10/07 10:07:26;;;;;;;12.27;2.60;;;;;;;14.66;75.49;102333.16;5074538;28;20369;-35
2022/10/07 10:09:54;;;;;;;13.18;3.20;;;;;;;14.79;75.72;102333.06;5074624;28;20450;-35
2022/10/07 10:12:21;;;;;;;9.68;2.97;;;;;;;14.88;75.25;102326.28;5074780;28;20040;-35
2022/10/07 10:14:47;;;;;;;9.40;3.00;;;;;;;14.98;73.33;102328.44;5074402;28;20066;-35
2022/10/07 10:17:39;;;;;;;11.88;2.78;;;;;;;15.05;73.27;102315.63;5074761;28;20024;-35
2022/10/07 10:20:22;;;;;;;11.32;2.25;;;;;;;15.05;73.45;102314.78;5074165;28;20511;-35
2022/10/07 10:22:48;;;;;;;11.57;2.63;;;;;;;15.04;72.70;102307.69;5074571;28;20059;-35
2022/10/07 10:28:33;;;;;;;13.02;2.85;;;;;;;15.16;73.66;102308.56;5074630;28;20337;-35
2022/10/07 10:31:15;;;;;;;7.10;2.17;;;;;;;15.29;73.56;102286.66;5074259;28;20056;-35
2022/10/07 10:34:12;;;;;;;8.32;2.35;;;;;;;15.46;72.55;102292.31;5074153;28;20036;-35
2022/10/07 10:36:44;;;;;;;7.97;2.45;;;;;;;15.52;71.63;102285.94;4992627;28;20462;-35
2022/10/07 10:39:32;;;;;;;9.00;2.25;;;;;;;15.57;71.88;102283.38;4992917;28;20101;-35
2022/10/07 10:42:01;;;;;;;9.75;2.83;;;;;;;15.57;69.23;102280.66;4985408;28;20454;-35
2022/10/07 10:44:53;;;;;;;8.60;2.50;;;;;;;15.61;69.91;102275.53;4992609;28;20447;-35
2022/10/07 10:47:32;;;;;;;11.45;2.67;;;;;;;15.67;70.49;102272.78;4992642;28;20064;-35
2022/10/07 10:50:34;;;;;;;8.93;2.75;;;;;;;15.80;69.93;102276.38;4975879;28;20037;-35
2022/10/07 10:53:11;;;;;;;11.27;2.42;;;;;;;15.80;69.69;102258.13;4991862;28;20205;-35
2022/10/07 10:55:47;;;;;;;9.30;2.28;;;;;;;15.95;69.97;102258.50;4992462;28;20364;-35
2022/10/07 10:58:28;;;;;;;8.77;2.13;;;;;;;15.94;68.89;102251.41;4992020;28;20038;-35
2022/10/07 11:01:26;;;;;;;8.45;2.30;;;;;;;16.06;69.47;102251.44;4992079;28;20293;-35
2022/10/07 11:04:25;;;;;;;12.57;2.65;;;;;;;16.20;68.71;102246.59;4992703;28;20037;-35
2022/10/07 11:06:59;;;;;;;10.52;2.50;;;;;;;16.16;67.10;102250.88;4992565;28;20030;-35
2022/10/07 11:09:38;;;;;;;7.88;2.55;;;;;;;16.17;67.97;102242.44;4991850;28;20030;-35
2022/10/07 11:12:13;;;;;;;9.48;2.28;;;;;;;16.19;67.28;102236.75;4992571;28;20209;-35
2022/10/07 11:14:47;;;;;;;11.00;2.15;;;;;;;16.31;67.04;102236.78;5071684;28;20048;-35
2022/10/07 11:17:14;;;;;;;9.82;2.15;;;;;;;16.32;66.49;102232.97;5073575;28;20040;-35
2022/10/07 11:19:48;;;;;;;7.53;2.33;;;;;;;16.31;66.41;102234.06;5073436;28;20452;-35
2022/10/07 11:22:20;;;;;;;7.10;2.45;;;;;;;16.32;66.26;102225.63;5073294;28;20028;-35
2022/10/07 11:24:53;;;;;;;11.02;2.65;;;;;;;16.43;66.07;102223.97;5073400;28;20028;-35
2022/10/07 11:27:21;;;;;;;12.98;2.97;;;;;;;16.46;66.14;102218.88;5073114;28;20060;-35
2022/10/07 11:30:01;;;;;;;9.75;2.63;;;;;;;16.55;65.49;102210.34;5073066;28;20447;-35
2022/10/07 11:32:33;;;;;;;12.20;2.80;;;;;;;16.65;64.75;102199.63;5073183;28;20035;-35
2022/10/07 11:35:20;;;;;;;14.02;3.20;;;;;;;16.60;64.24;102185.88;5072924;28;20039;-35
2022/10/07 11:38:13;;;;;;;10.50;2.95;;;;;;;16.68;64.84;102183.59;5072975;28;20033;-35
2022/10/07 11:40:41;;;;;;;11.73;2.92;;;;;;;16.70;63.82;102180.63;5073175;28;20107;-35
2022/10/07 11:43:25;;;;;;;10.63;2.85;;;;;;;16.82;63.93;102173.25;5072855;28;20032;-35
2022/10/07 11:45:56;;;;;;;7.85;2.15;;;;;;;16.93;63.71;102166.97;5073077;28;20032;-35